Time;durP1;ratioP1;P1;durP2;ratioP2;P2;SDS_P1;SDS_P2;PMS_P1;PMS_P2;Temp;Humidity;BMP_temperature;BMP_pressure;BME280_temperature;BME280_humidity;BME280_pressure;Samples;Min_cycle;Max_cycle;Signal;HPM_P1;HPM_P2
2022/03/28 00:00:35;;;;;;;31.90;18.90;;;;;;;-0.04;51.79;100378.60;445019;1269;336467;-65
2022/03/28 00:10:41;;;;;;;25.50;15.30;;;;;;;-0.13;52.11;100367.83;447575;1269;141567;-65
2022/03/28 00:20:49;;;;;;;19.20;10.70;;;;;;;-0.18;51.81;100359.61;435306;1269;143620;-67
2022/03/28 00:30:55;;;;;;;19.70;10.80;;;;;;;-0.13;51.45;100349.25;431487;1269;142764;-65
2022/03/28 00:41:01;;;;;;;13.20;8.20;;;;;;;-0.11;51.54;100333.73;433590;1269;142338;-65
2022/03/28 00:51:06;;;;;;;13.00;8.60;;;;;;;-0.09;51.65;100317.55;442535;1269;141223;-64
2022/03/28 01:01:13;;;;;;;10.60;6.60;;;;;;;0.02;51.67;100300.23;446793;1268;142435;-65
2022/03/28 01:11:20;;;;;;;11.40;7.00;;;;;;;0.08;51.63;100275.39;437712;1270;143663;-64
2022/03/28 01:21:26;;;;;;;12.70;6.70;;;;;;;0.22;51.23;100251.13;446890;1269;142228;-64
2022/03/28 01:31:32;;;;;;;13.10;6.50;;;;;;;0.34;50.99;100240.16;447701;1269;141449;-66
2022/03/28 01:41:38;;;;;;;11.50;6.40;;;;;;;0.27;51.02;100226.63;447610;1269;142124;-66
2022/03/28 01:51:45;;;;;;;10.90;6.80;;;;;;;0.22;50.85;100216.52;446878;1269;142048;-66
2022/03/28 02:01:51;;;;;;;9.70;6.30;;;;;;;0.21;50.81;100208.61;437639;1270;142658;-67
2022/03/28 02:11:57;;;;;;;10.50;6.40;;;;;;;0.14;50.89;100193.88;440205;1270;141612;-65
2022/03/28 02:22:03;;;;;;;9.80;6.10;;;;;;;0.04;51.26;100189.36;446872;1269;141439;-65
2022/03/28 02:32:12;;;;;;;10.50;6.20;;;;;;;0.00;51.37;100182.16;436249;1270;140793;-64
2022/03/28 02:42:22;;;;;;;11.10;6.60;;;;;;;-0.03;51.37;100173.59;447556;1269;142837;-66
2022/03/28 02:52:28;;;;;;;16.30;7.90;;;;;;;0.01;51.38;100165.63;447069;1270;144000;-65
2022/03/28 03:02:34;;;;;;;9.20;6.20;;;;;;;0.06;51.13;100154.38;431435;1270;141670;-65
2022/03/28 03:12:40;;;;;;;15.30;8.50;;;;;;;0.10;51.48;100149.50;429648;1270;142329;-65
2022/03/28 03:22:46;;;;;;;11.50;6.70;;;;;;;0.10;51.38;100145.73;435774;1270;141343;-67
2022/03/28 03:32:52;;;;;;;13.50;6.00;;;;;;;0.06;51.78;100143.70;436556;1269;141213;-64
2022/03/28 03:42:58;;;;;;;12.90;6.60;;;;;;;0.07;51.57;100132.33;436580;1270;142129;-65
2022/03/28 03:53:04;;;;;;;12.20;7.10;;;;;;;-0.04;51.66;100136.07;447674;1269;141311;-66
2022/03/28 04:03:10;;;;;;;15.30;7.90;;;;;;;-0.09;51.89;100132.52;447677;1269;143464;-66
2022/03/28 04:13:16;;;;;;;12.30;7.90;;;;;;;-0.12;52.05;100124.80;444751;1269;141800;-65
2022/03/28 04:23:22;;;;;;;15.50;7.80;;;;;;;-0.16;52.46;100113.33;441059;1269;141105;-65
2022/03/28 04:33:28;;;;;;;14.20;8.90;;;;;;;-0.11;52.69;100103.29;438970;1269;142159;-65
2022/03/28 04:43:34;;;;;;;11.00;7.60;;;;;;;-0.00;52.94;100091.27;447176;1270;141779;-64
2022/03/28 04:53:39;;;;;;;17.40;7.90;;;;;;;0.22;52.99;100082.04;432554;1270;141365;-66
2022/03/28 05:03:45;;;;;;;14.40;7.50;;;;;;;0.52;53.33;100083.85;438698;1270;143035;-65
2022/03/28 05:13:51;;;;;;;15.80;8.20;;;;;;;0.91;53.21;100068.09;447326;1269;142418;-64
2022/03/28 05:23:57;;;;;;;22.90;10.20;;;;;;;1.56;52.85;100059.34;447696;1269;142074;-66
2022/03/28 05:34:02;;;;;;;15.30;9.40;;;;;;;3.49;51.57;100055.54;446478;1270;142124;-65
2022/03/28 05:44:09;;;;;;;33.10;11.20;;;;;;;9.10;47.98;100042.52;447420;1270;141816;-66
2022/03/28 05:54:15;;;;;;;19.90;11.30;;;;;;;15.83;39.78;100023.29;447383;1269;142210;-65
2022/03/28 06:04:21;;;;;;;17.30;11.50;;;;;;;20.19;33.93;100006.46;446106;1269;141771;-65
2022/03/28 06:14:27;;;;;;;13.10;10.70;;;;;;;23.44;29.55;99993.39;433311;1270;143334;-66
2022/03/28 06:24:33;;;;;;;13.40;10.60;;;;;;;26.61;26.32;99980.33;445546;1268;143009;-66
2022/03/28 06:34:39;;;;;;;10.80;9.60;;;;;;;29.05;23.58;99971.63;447459;1269;183349;-67
2022/03/28 06:44:45;;;;;;;11.50;8.80;;;;;;;30.32;21.76;99955.73;443573;1269;140823;-66
2022/03/28 06:54:51;;;;;;;11.80;8.80;;;;;;;31.86;20.25;99943.42;431787;1270;142826;-65
2022/03/28 07:04:57;;;;;;;10.00;8.80;;;;;;;32.84;19.05;99925.42;431221;1271;140646;-63
2022/03/28 07:15:03;;;;;;;12.70;9.10;;;;;;;33.06;18.16;99915.10;445621;1269;140970;-61
2022/03/28 07:25:11;;;;;;;8.50;7.60;;;;;;;34.56;17.67;99900.23;447164;1269;141714;-63
2022/03/28 07:35:17;;;;;;;10.40;6.70;;;;;;;35.28;16.92;99895.86;447821;1269;141382;-66
2022/03/28 07:45:23;;;;;;;6.50;5.90;;;;;;;35.30;16.45;99880.95;446965;1269;142349;-63
2022/03/28 07:55:30;;;;;;;10.50;5.60;;;;;;;35.11;16.90;99874.83;442911;1267;141133;-65
2022/03/28 08:05:36;;;;;;;6.80;5.80;;;;;;;36.65;16.40;99867.36;444777;1270;141425;-70
2022/03/28 08:15:41;;;;;;;7.10;6.10;;;;;;;36.51;16.16;99848.38;446834;1270;189666;-69
2022/03/28 08:25:47;;;;;;;8.90;7.00;;;;;;;36.00;15.95;99834.88;442827;1269;141630;-70
2022/03/28 08:35:53;;;;;;;10.70;7.50;;;;;;;37.02;15.79;99831.33;447408;1269;140813;-71
2022/03/28 08:46:04;;;;;;;7.30;5.30;;;;;;;38.23;14.81;99821.16;438729;1268;142508;-68
2022/03/28 08:56:10;;;;;;;6.40;5.80;;;;;;;34.16;15.50;99803.52;447705;1269;141893;-69
2022/03/28 09:06:38;;;;;;;5.80;5.30;;;;;;;26.01;19.56;99787.40;446988;1270;141612;-67
2022/03/28 09:16:46;;;;;;;8.00;5.20;;;;;;;21.99;23.11;99778.73;447303;1270;142064;-67
2022/03/28 09:27:09;;;;;;;8.30;4.90;;;;;;;19.65;25.67;99777.23;447421;1269;141316;-63
2022/03/28 09:37:16;;;;;;;8.00;4.20;;;;;;;18.46;27.44;99771.67;446809;1270;141826;-60
2022/03/28 09:47:24;;;;;;;11.80;6.40;;;;;;;18.08;28.58;99746.48;447721;1270;142254;-60
2022/03/28 09:57:32;;;;;;;7.60;5.30;;;;;;;17.50;29.86;99739.45;445887;1268;141846;-62
2022/03/28 10:07:37;;;;;;;;;;;;;;;17.16;30.67;99722.02;447314;1270;141167;-64
2022/03/28 10:17:43;;;;;;;16.20;8.60;;;;;;;16.74;31.66;99707.42;447951;1269;128308;-62
2022/03/28 10:27:51;;;;;;;10.50;4.50;;;;;;;16.60;32.27;99695.40;435705;1271;142365;-60
2022/03/28 10:38:16;;;;;;;9.40;4.90;;;;;;;16.38;32.94;99679.63;430427;1270;141035;-62
2022/03/28 10:48:39;;;;;;;7.90;4.90;;;;;;;16.28;33.45;99663.71;435322;1271;164712;-59
2022/03/28 10:58:46;;;;;;;12.50;4.80;;;;;;;16.21;33.55;99646.14;447667;1269;142898;-62
2022/03/28 11:09:01;;;;;;;7.30;3.40;;;;;;;16.29;33.49;99631.89;447549;1270;142259;-59
2022/03/28 11:19:29;;;;;;;10.00;5.10;;;;;;;16.32;33.73;99612.28;446833;1270;142102;-59
2022/03/28 11:29:35;;;;;;;12.20;4.20;;;;;;;16.45;33.14;99599.22;447757;1270;141813;-59
2022/03/28 11:40:04;;;;;;;6.50;3.60;;;;;;;16.55;32.90;99578.31;447027;1270;164028;-60
2022/03/28 11:50:11;;;;;;;25.80;5.10;;;;;;;16.64;32.68;99552.45;447510;1270;141385;-59
2022/03/28 12:00:20;;;;;;;9.00;3.10;;;;;;;16.76;32.13;99533.29;436062;1270;291484;-56
2022/03/28 12:10:28;;;;;;;14.30;5.70;;;;;;;16.92;32.21;99519.69;442797;1269;142053;-64
2022/03/28 12:20:33;;;;;;;;;;;;;;;17.03;31.86;99501.19;441516;1269;142771;-63
2022/03/28 12:30:42;;;;;;;11.00;3.40;;;;;;;17.14;32.20;99480.22;447174;1269;129116;-63
2022/03/28 12:40:51;;;;;;;7.90;3.90;;;;;;;17.17;31.84;99469.83;447705;1269;141279;-58
2022/03/28 12:51:00;;;;;;;5.90;3.60;;;;;;;17.23;32.23;99452.58;441601;1269;141156;-59
2022/03/28 13:01:09;;;;;;;10.20;4.10;;;;;;;17.32;31.90;99433.99;446313;1270;140930;-58
2022/03/28 13:11:17;;;;;;;16.30;5.80;;;;;;;17.33;31.82;99410.20;447506;1270;141937;-62
2022/03/28 13:21:28;;;;;;;11.20;4.40;;;;;;;17.27;31.89;99393.61;446708;1270;141797;-63
2022/03/28 13:31:34;;;;;;;6.20;3.00;;;;;;;17.22;32.34;99383.66;446621;1269;141813;-60
2022/03/28 13:41:40;;;;;;;19.10;5.50;;;;;;;17.21;32.28;99367.12;439757;1269;142116;-59
2022/03/28 13:51:47;;;;;;;25.40;5.30;;;;;;;17.24;32.41;99357.09;446803;1269;142620;-58
2022/03/28 14:01:53;;;;;;;8.50;5.90;;;;;;;17.25;32.54;99334.40;446486;1270;141756;-62
2022/03/28 14:11:59;;;;;;;7.60;4.20;;;;;;;17.21;32.81;99311.92;445134;1270;142345;-62
2022/03/28 14:22:06;;;;;;;7.60;5.00;;;;;;;17.13;33.06;99296.44;446761;1270;141744;-59
2022/03/28 14:32:12;;;;;;;7.20;4.50;;;;;;;17.15;33.35;99279.95;447625;1270;140574;-63
2022/03/28 14:42:19;;;;;;;7.90;4.20;;;;;;;17.09;33.47;99267.76;438168;1269;142300;-60
2022/03/28 14:52:25;;;;;;;9.10;4.10;;;;;;;17.03;33.87;99260.52;444331;1270;142047;-62
2022/03/28 15:02:31;;;;;;;10.90;4.40;;;;;;;17.02;33.97;99241.38;445175;1270;141823;-63
2022/03/28 15:12:37;;;;;;;11.30;8.00;;;;;;;17.00;34.39;99225.52;446927;1269;142824;-63
2022/03/28 15:22:44;;;;;;;6.40;3.90;;;;;;;16.99;34.49;99218.85;447523;1269;141829;-62
2022/03/28 15:32:50;;;;;;;13.00;4.20;;;;;;;17.00;34.46;99205.67;447568;1269;141847;-63
2022/03/28 15:42:57;;;;;;;6.00;3.90;;;;;;;17.03;34.53;99188.56;437223;1270;142274;-60
2022/03/28 15:53:03;;;;;;;16.10;7.40;;;;;;;16.91;34.54;99176.45;435450;1269;143909;-65
2022/03/28 16:03:10;;;;;;;5.40;3.20;;;;;;;16.67;34.81;99170.33;440565;1269;145734;-65
2022/03/28 16:13:16;;;;;;;9.30;4.30;;;;;;;16.36;35.25;99173.06;446806;1269;142797;-71
2022/03/28 16:23:24;;;;;;;6.70;4.10;;;;;;;16.07;35.74;99160.77;441514;1269;141603;-64
2022/03/28 16:33:31;;;;;;;6.40;3.50;;;;;;;15.79;36.14;99150.26;446660;1270;142038;-63
2022/03/28 16:43:37;;;;;;;8.50;4.50;;;;;;;15.49;36.71;99135.69;442239;1269;141508;-60
2022/03/28 16:53:44;;;;;;;6.20;3.70;;;;;;;15.26;37.47;99119.58;435988;1269;140913;-63
2022/03/28 17:03:50;;;;;;;7.80;4.80;;;;;;;14.93;38.16;99113.21;438502;1269;142375;-68
2022/03/28 17:13:56;;;;;;;12.10;5.60;;;;;;;14.57;38.95;99105.07;447047;1269;142454;-62
2022/03/28 17:24:04;;;;;;;6.20;4.90;;;;;;;14.32;39.64;99096.83;447542;1269;141191;-63
2022/03/28 17:34:14;;;;;;;7.60;3.90;;;;;;;14.05;40.34;99099.86;447003;1269;141211;-62
2022/03/28 17:44:22;;;;;;;9.70;5.80;;;;;;;13.81;40.82;99100.34;435335;1270;141032;-60
2022/03/28 17:54:28;;;;;;;7.30;5.20;;;;;;;13.54;41.45;99100.52;446935;1269;141208;-62
2022/03/28 18:04:34;;;;;;;8.20;5.10;;;;;;;13.33;42.12;99094.66;438046;1270;142021;-62
2022/03/28 18:14:40;;;;;;;9.70;4.50;;;;;;;13.09;42.69;99097.89;439779;1267;141962;-62
2022/03/28 18:24:46;;;;;;;8.50;5.80;;;;;;;12.94;43.13;99092.77;439100;1269;141969;-61
2022/03/28 18:34:52;;;;;;;7.30;4.30;;;;;;;12.77;43.68;99093.09;447370;1270;142934;-61
2022/03/28 18:44:59;;;;;;;14.70;6.10;;;;;;;12.64;44.10;99091.08;447591;1269;143193;-63
2022/03/28 18:55:10;;;;;;;14.40;5.00;;;;;;;12.51;44.47;99088.83;446690;1269;141400;-63
2022/03/28 19:05:17;;;;;;;10.30;6.00;;;;;;;12.30;44.86;99084.65;447413;1267;143410;-63
2022/03/28 19:15:23;;;;;;;9.80;5.30;;;;;;;12.09;45.30;99079.79;446783;1269;145543;-61
2022/03/28 19:25:29;;;;;;;10.70;5.50;;;;;;;11.88;45.73;99071.02;446424;1268;142043;-61
2022/03/28 19:35:35;;;;;;;8.20;6.40;;;;;;;11.67;46.06;99061.25;439809;1268;141909;-60
2022/03/28 19:45:41;;;;;;;15.00;6.80;;;;;;;11.33;46.58;99052.27;430392;1270;162923;-57
2022/03/28 19:55:48;;;;;;;17.30;6.90;;;;;;;11.21;47.15;99047.19;430641;1270;145400;-57
2022/03/28 20:05:54;;;;;;;12.10;8.40;;;;;;;11.05;47.28;99045.89;447666;1269;141997;-58
2022/03/28 20:16:00;;;;;;;9.20;7.80;;;;;;;10.73;48.08;99032.02;439796;1269;143263;-57
2022/03/28 20:26:07;;;;;;;9.50;6.60;;;;;;;10.40;48.50;99020.36;430970;1270;145429;-56
2022/03/28 20:36:13;;;;;;;9.30;8.30;;;;;;;10.09;48.95;99005.45;445845;1269;143086;-57
2022/03/28 20:46:19;;;;;;;11.30;8.00;;;;;;;9.83;49.64;98998.69;446821;1268;144673;-57
2022/03/28 20:56:25;;;;;;;11.20;8.00;;;;;;;9.65;50.26;98988.88;447540;1269;144260;-57
2022/03/28 21:06:31;;;;;;;10.00;7.90;;;;;;;9.54;50.49;98984.23;442660;1270;141990;-56
2022/03/28 21:16:37;;;;;;;12.10;8.10;;;;;;;9.52;50.99;98980.73;440418;1269;141650;-56
2022/03/28 21:26:43;;;;;;;11.60;8.10;;;;;;;9.32;51.14;98977.14;439966;1270;141169;-58
2022/03/28 21:36:49;;;;;;;13.50;10.70;;;;;;;9.11;51.50;98978.20;441384;1270;142044;-57
2022/03/28 21:46:55;;;;;;;15.10;11.50;;;;;;;9.00;52.28;98963.80;447549;1269;142208;-57
2022/03/28 21:57:01;;;;;;;15.40;12.20;;;;;;;9.17;53.00;98956.34;447206;1269;194576;-58
2022/03/28 22:07:07;;;;;;;13.30;10.90;;;;;;;9.43;52.80;98954.27;446297;1268;141932;-56
2022/03/28 22:17:17;;;;;;;26.10;21.40;;;;;;;9.46;52.64;98948.44;446881;1270;141578;-56
2022/03/28 22:27:23;;;;;;;13.40;9.50;;;;;;;9.25;52.98;98952.83;446426;1270;142303;-54
2022/03/28 22:37:29;;;;;;;11.40;8.70;;;;;;;9.12;52.06;98947.63;434672;1270;142045;-50
2022/03/28 22:47:35;;;;;;;10.20;8.00;;;;;;;8.85;52.09;98950.27;444517;1270;142065;-54
2022/03/28 22:57:41;;;;;;;13.30;7.90;;;;;;;8.59;52.04;98955.48;447150;1269;142402;-55
2022/03/28 23:07:47;;;;;;;12.10;7.60;;;;;;;8.30;52.03;98955.08;447658;1270;144254;-55
2022/03/28 23:17:53;;;;;;;12.40;6.50;;;;;;;8.08;52.17;98949.52;447847;1269;145320;-53
2022/03/28 23:27:59;;;;;;;9.90;6.80;;;;;;;7.89;52.42;98930.84;446894;1270;141067;-56
2022/03/28 23:38:05;;;;;;;14.50;10.60;;;;;;;7.68;52.67;98922.73;443118;1270;140927;-54
2022/03/28 23:48:11;;;;;;;23.10;16.00;;;;;;;7.48;52.99;98912.44;447654;1270;141739;-54
2022/03/28 23:58:17;;;;;;;15.40;12.70;;;;;;;7.23;53.49;98899.89;434483;1268;178193;-51
